Time;durP1;ratioP1;P1;durP2;ratioP2;P2;SDS_P1;SDS_P2;PMS_P1;PMS_P2;Temp;Humidity;BMP_temperature;BMP_pressure;BME280_temperature;BME280_humidity;BME280_pressure;Samples;Min_cycle;Max_cycle;Signal;HPM_P1;HPM_P2
2021/01/25 00:02:20;;;;;;;0.20;0.10;;;;;;;1.16;100.00;98557.97;4998782;28;20452;-74
2021/01/25 00:04:47;;;;;;;0.20;0.10;;;;;;;1.14;100.00;98560.63;5015935;28;20455;-74
2021/01/25 00:07:13;;;;;;;0.20;0.10;;;;;;;1.16;100.00;98552.75;5016455;28;20689;-74
2021/01/25 00:09:39;;;;;;;0.20;0.10;;;;;;;1.21;100.00;98543.03;5015794;28;20492;-74
2021/01/25 00:12:05;;;;;;;0.20;0.10;;;;;;;1.29;100.00;98545.50;5016237;28;20444;-74
2021/01/25 00:14:31;;;;;;;0.20;0.10;;;;;;;1.29;100.00;98541.16;5015845;28;20491;-74
2021/01/25 00:16:58;;;;;;;0.20;0.20;;;;;;;1.22;100.00;98534.28;4974652;28;20465;-74
2021/01/25 00:19:24;;;;;;;0.20;0.10;;;;;;;1.25;100.00;98530.78;4993386;28;20524;-74
2021/01/25 00:21:50;;;;;;;0.20;0.10;;;;;;;1.28;100.00;98526.34;5008480;28;20444;-74
2021/01/25 00:24:16;;;;;;;0.20;0.10;;;;;;;1.25;100.00;98534.25;5012487;28;20942;-74
2021/01/25 00:26:43;;;;;;;0.20;0.10;;;;;;;1.26;100.00;98532.50;5015891;28;20531;-74
2021/01/25 00:29:09;;;;;;;0.20;0.10;;;;;;;1.32;100.00;98533.22;4997783;28;20479;-74
2021/01/25 00:31:35;;;;;;;0.20;0.10;;;;;;;1.28;100.00;98534.19;5015899;28;20969;-74
2021/01/25 00:34:01;;;;;;;0.20;0.10;;;;;;;1.32;100.00;98522.75;5023277;28;20448;-73
2021/01/25 00:36:27;;;;;;;0.20;0.10;;;;;;;1.54;100.00;98532.81;5015875;28;20496;-74
2021/01/25 00:38:53;;;;;;;0.20;0.10;;;;;;;1.47;100.00;98532.91;5018142;28;20502;-73
2021/01/25 00:41:19;;;;;;;0.20;0.10;;;;;;;1.28;100.00;98535.94;5002509;28;20797;-74
2021/01/25 00:43:46;;;;;;;0.20;0.10;;;;;;;1.47;100.00;98529.44;4990301;28;20464;-74
2021/01/25 00:46:12;;;;;;;0.20;0.10;;;;;;;1.41;100.00;98519.97;5016443;28;20876;-74
2021/01/25 00:48:38;;;;;;;0.20;0.10;;;;;;;1.34;100.00;98520.09;4972209;28;20448;-74
2021/01/25 00:51:04;;;;;;;0.20;0.10;;;;;;;1.53;100.00;98529.31;5016457;28;20492;-74
2021/01/25 00:53:30;;;;;;;0.20;0.10;;;;;;;1.47;100.00;98522.44;5013387;28;20480;-74
2021/01/25 00:55:57;;;;;;;0.20;0.10;;;;;;;1.33;100.00;98527.09;5010325;28;20496;-74
2021/01/25 00:58:23;;;;;;;0.20;0.10;;;;;;;1.50;100.00;98516.28;4980105;28;20466;-74
2021/01/25 01:00:49;;;;;;;0.20;0.10;;;;;;;1.41;100.00;98519.09;5005801;28;20469;-75
2021/01/25 01:03:15;;;;;;;0.20;0.10;;;;;;;1.34;100.00;98507.03;5006274;28;20455;-74
2021/01/25 01:05:41;;;;;;;0.20;0.10;;;;;;;1.38;100.00;98514.81;5005424;28;20491;-74
2021/01/25 01:08:07;;;;;;;0.20;0.10;;;;;;;1.37;100.00;98520.03;5019085;28;20457;-74
2021/01/25 01:10:33;;;;;;;0.20;0.10;;;;;;;1.61;100.00;98521.28;5017840;28;20485;-74
2021/01/25 01:12:59;;;;;;;0.20;0.10;;;;;;;1.61;100.00;98508.19;4975458;28;20455;-74
2021/01/25 01:15:26;;;;;;;0.20;0.10;;;;;;;1.78;100.00;98519.16;5018369;28;20534;-74
2021/01/25 01:17:52;;;;;;;0.20;0.10;;;;;;;1.67;100.00;98518.56;5015996;28;20453;-74
2021/01/25 01:20:19;;;;;;;0.20;0.10;;;;;;;1.57;100.00;98519.63;4997330;28;20483;-74
2021/01/25 01:22:45;;;;;;;0.20;0.10;;;;;;;1.62;100.00;98523.00;5014969;28;20870;-74
2021/01/25 01:25:12;;;;;;;0.20;0.10;;;;;;;1.41;100.00;98524.34;4994504;28;20535;-75
2021/01/25 01:27:38;;;;;;;0.20;0.10;;;;;;;1.48;100.00;98520.69;4989520;28;20539;-74
2021/01/25 01:30:08;;;;;;;0.20;0.10;;;;;;;1.71;100.00;98525.44;4997012;28;20494;-74
2021/01/25 01:32:35;;;;;;;0.20;0.20;;;;;;;1.62;100.00;98530.88;5014906;28;20453;-74
2021/01/25 01:35:03;;;;;;;0.20;0.10;;;;;;;1.58;100.00;98532.69;5014577;28;20575;-74
2021/01/25 01:37:29;;;;;;;0.20;0.10;;;;;;;1.51;100.00;98531.13;5014425;28;20460;-74
2021/01/25 01:39:55;;;;;;;0.20;0.10;;;;;;;1.57;100.00;98517.03;5014448;28;20476;-74
2021/01/25 01:42:21;;;;;;;0.20;0.10;;;;;;;1.53;100.00;98516.22;5014465;28;20568;-74
2021/01/25 01:44:47;;;;;;;0.20;0.10;;;;;;;1.59;100.00;98525.69;5014224;28;20444;-74
2021/01/25 01:47:19;;;;;;;0.20;0.10;;;;;;;1.54;100.00;98528.44;5014576;28;20456;-74
2021/01/25 01:49:49;;;;;;;0.20;0.10;;;;;;;1.56;100.00;98521.41;5014497;28;20551;-74
2021/01/25 01:52:15;;;;;;;0.20;0.10;;;;;;;1.53;100.00;98518.84;5014413;28;20449;-74
2021/01/25 01:54:43;;;;;;;0.20;0.10;;;;;;;1.82;100.00;98526.06;5003921;28;20493;-74
2021/01/25 01:57:10;;;;;;;0.20;0.10;;;;;;;1.60;100.00;98530.91;5043725;22;20518;-54
2021/01/25 01:59:37;;;;;;;0.20;0.10;;;;;;;1.65;100.00;98523.84;5047278;28;20473;-54
2021/01/25 02:02:03;;;;;;;0.20;0.10;;;;;;;1.73;100.00;98532.38;5042847;28;20505;-54
2021/01/25 02:04:32;;;;;;;0.20;0.10;;;;;;;1.63;100.00;98528.22;5037679;28;20877;-54
2021/01/25 02:07:00;;;;;;;0.20;0.10;;;;;;;1.68;100.00;98528.13;5043114;28;20451;-54
2021/01/25 02:09:29;;;;;;;0.20;0.10;;;;;;;1.47;100.00;98526.81;5040006;28;20446;-53
2021/01/25 02:11:57;;;;;;;0.20;0.10;;;;;;;1.41;100.00;98525.19;5041988;28;20982;-52
2021/01/25 02:14:25;;;;;;;0.20;0.10;;;;;;;1.38;100.00;98527.88;5046771;28;20984;-53
2021/01/25 02:16:52;;;;;;;0.20;0.10;;;;;;;1.40;100.00;98535.69;5033614;28;20541;-54
2021/01/25 02:19:29;;;;;;;0.20;0.10;;;;;;;1.52;100.00;98530.22;5046684;28;20975;-54
2021/01/25 02:22:33;;;;;;;0.20;0.10;;;;;;;1.47;100.00;98532.06;5033501;28;20444;-53
2021/01/25 02:25:02;;;;;;;0.20;0.10;;;;;;;1.56;100.00;98531.00;5032854;28;20496;-53
2021/01/25 02:27:28;;;;;;;0.20;0.10;;;;;;;1.58;100.00;98531.84;5034789;28;20509;-54
2021/01/25 02:29:55;;;;;;;0.20;0.10;;;;;;;1.56;100.00;98528.41;5045004;28;20450;-54
2021/01/25 02:32:22;;;;;;;0.20;0.10;;;;;;;1.68;100.00;98525.53;5047213;28;20448;-53
2021/01/25 02:34:49;;;;;;;0.30;0.10;;;;;;;1.65;100.00;98526.44;5033146;28;20902;-53
2021/01/25 02:37:16;;;;;;;0.20;0.10;;;;;;;1.59;100.00;98530.94;5046329;28;20810;-53
2021/01/25 02:39:43;;;;;;;0.23;0.17;;;;;;;1.43;100.00;98526.03;5033073;28;20948;-54
2021/01/25 02:42:10;;;;;;;0.20;0.10;;;;;;;1.44;100.00;98525.13;5046530;28;20604;-54
2021/01/25 02:44:38;;;;;;;0.20;0.10;;;;;;;1.48;100.00;98526.78;5033022;28;20506;-54
2021/01/25 02:47:04;;;;;;;0.20;0.10;;;;;;;1.63;100.00;98524.72;5046275;28;20501;-54
2021/01/25 02:49:31;;;;;;;0.20;0.10;;;;;;;1.58;100.00;98526.59;5032929;28;20824;-52
2021/01/25 02:51:57;;;;;;;0.30;0.30;;;;;;;1.68;100.00;98523.75;5039726;28;20963;-53
2021/01/25 02:54:23;;;;;;;0.20;0.10;;;;;;;1.75;100.00;98533.19;5049014;28;20479;-54
2021/01/25 02:56:50;;;;;;;0.20;0.10;;;;;;;1.66;100.00;98533.41;5039229;28;20577;-54
2021/01/25 02:59:17;;;;;;;0.20;0.10;;;;;;;1.57;100.00;98530.13;5039748;28;20459;-53
2021/01/25 03:01:45;;;;;;;0.20;0.10;;;;;;;1.59;100.00;98533.56;5052558;28;20508;-53
2021/01/25 03:04:14;;;;;;;0.20;0.10;;;;;;;1.63;100.00;98530.84;5038861;28;20467;-54
2021/01/25 03:06:42;;;;;;;0.20;0.10;;;;;;;1.35;100.00;98527.06;5039901;28;20500;-54
2021/01/25 03:09:08;;;;;;;0.20;0.10;;;;;;;1.33;100.00;98534.09;5038211;28;20452;-52
2021/01/25 03:11:38;;;;;;;0.20;0.10;;;;;;;1.55;100.00;98527.53;5039627;28;20504;-54
2021/01/25 03:14:09;;;;;;;0.20;0.10;;;;;;;1.38;100.00;98537.50;5037377;28;20992;-54
2021/01/25 03:16:36;;;;;;;0.20;0.10;;;;;;;1.30;100.00;98528.91;5041474;28;20963;-54
2021/01/25 03:19:03;;;;;;;0.20;0.10;;;;;;;1.36;100.00;98536.63;5036331;28;20869;-53
2021/01/25 03:21:32;;;;;;;0.20;0.10;;;;;;;1.36;100.00;98540.13;5042076;28;20450;-53
2021/01/25 03:23:59;;;;;;;0.20;0.10;;;;;;;1.18;100.00;98536.13;5041971;28;20474;-53
2021/01/25 03:26:25;;;;;;;0.20;0.20;;;;;;;1.13;100.00;98535.34;5042615;28;20502;-53
2021/01/25 03:28:51;;;;;;;0.20;0.10;;;;;;;1.26;100.00;98538.59;5035225;28;20939;-54
2021/01/25 03:31:17;;;;;;;0.20;0.10;;;;;;;1.33;100.00;98545.41;5052298;28;20455;-53
2021/01/25 03:33:44;;;;;;;0.20;0.10;;;;;;;1.35;100.00;98548.00;5035232;28;20468;-54
2021/01/25 03:36:10;;;;;;;0.20;0.10;;;;;;;1.31;100.00;98541.09;5042486;28;20494;-54
2021/01/25 03:38:36;;;;;;;0.20;0.10;;;;;;;1.28;100.00;98543.78;5035362;28;20448;-53
2021/01/25 03:41:02;;;;;;;0.20;0.10;;;;;;;1.23;100.00;98543.88;5042922;28;20451;-54
2021/01/25 03:43:28;;;;;;;0.20;0.10;;;;;;;1.29;100.00;98541.16;5034635;28;20471;-54
2021/01/25 03:45:54;;;;;;;0.20;0.10;;;;;;;1.34;100.00;98547.13;5043045;28;20454;-54
2021/01/25 03:48:21;;;;;;;0.20;0.10;;;;;;;1.36;100.00;98544.50;5034846;28;20458;-54
2021/01/25 03:50:47;;;;;;;0.20;0.10;;;;;;;1.46;100.00;98546.91;5043257;28;20451;-54
2021/01/25 03:53:14;;;;;;;0.20;0.10;;;;;;;1.39;100.00;98549.69;5034552;28;20541;-54
2021/01/25 03:55:40;;;;;;;0.20;0.10;;;;;;;1.28;100.00;98543.78;5050623;28;20490;-53
2021/01/25 03:58:06;;;;;;;0.20;0.10;;;;;;;1.25;100.00;98551.72;5034232;28;20448;-53
2021/01/25 04:00:32;;;;;;;0.20;0.20;;;;;;;1.30;100.00;98555.09;5043489;28;20446;-54
2021/01/25 04:02:58;;;;;;;0.20;0.10;;;;;;;1.04;100.00;98547.72;5034331;28;20522;-53
2021/01/25 04:05:25;;;;;;;0.20;0.10;;;;;;;1.32;100.00;98553.31;5043321;28;20544;-54
2021/01/25 04:07:51;;;;;;;0.20;0.10;;;;;;;1.21;100.00;98544.78;5034120;28;20447;-53
2021/01/25 04:10:17;;;;;;;0.20;0.10;;;;;;;1.23;100.00;98556.09;5043121;28;20450;-54
2021/01/25 04:12:43;;;;;;;0.20;0.10;;;;;;;1.16;100.00;98552.75;5034191;28;20494;-54
2021/01/25 04:15:10;;;;;;;0.20;0.10;;;;;;;1.16;100.00;98557.97;5043233;28;20490;-53
2021/01/25 04:17:37;;;;;;;0.20;0.10;;;;;;;1.02;100.00;98560.84;5034018;28;20452;-53
2021/01/25 04:20:07;;;;;;;0.20;0.10;;;;;;;1.07;100.00;98564.22;5043384;28;20443;-54
2021/01/25 04:22:34;;;;;;;1.33;1.23;;;;;;;1.23;100.00;98559.56;5047346;28;20979;-54
2021/01/25 04:25:01;;;;;;;0.20;0.10;;;;;;;1.09;100.00;98564.19;5055216;28;20516;-54
2021/01/25 04:27:27;;;;;;;0.30;0.30;;;;;;;1.05;100.00;98565.16;5036626;28;20455;-54
2021/01/25 04:29:53;;;;;;;0.20;0.10;;;;;;;1.03;100.00;98559.09;5047491;28;20936;-54
2021/01/25 04:32:19;;;;;;;0.20;0.10;;;;;;;0.99;100.00;98560.91;5041856;28;20505;-53
2021/01/25 04:34:45;;;;;;;0.20;0.10;;;;;;;1.02;100.00;98563.47;5055378;28;20505;-53
2021/01/25 04:37:11;;;;;;;0.20;0.10;;;;;;;0.95;100.00;98559.22;5043589;28;20513;-53
2021/01/25 04:39:37;;;;;;;0.20;0.10;;;;;;;0.80;100.00;98562.09;5047302;28;21020;-53
2021/01/25 04:42:05;;;;;;;0.20;0.10;;;;;;;0.87;100.00;98563.75;5036388;28;20448;-52
2021/01/25 04:44:32;;;;;;;0.20;0.10;;;;;;;0.91;100.00;98561.91;5047153;28;20474;-53
2021/01/25 04:47:01;;;;;;;0.20;0.10;;;;;;;0.89;100.00;98569.78;5035445;28;20443;-52
2021/01/25 04:49:30;;;;;;;0.20;0.20;;;;;;;0.79;100.00;98566.47;5048318;28;20450;-52
2021/01/25 04:51:56;;;;;;;0.20;0.10;;;;;;;0.88;100.00;98568.06;5034845;28;20845;-51
2021/01/25 04:54:23;;;;;;;0.20;0.10;;;;;;;0.83;100.00;98568.16;5048161;28;20471;-51
2021/01/25 04:56:50;;;;;;;0.20;0.10;;;;;;;0.80;100.00;98565.59;5034494;28;20549;-52
2021/01/25 04:59:17;;;;;;;0.20;0.10;;;;;;;0.83;100.00;98569.91;5048173;28;20447;-51
2021/01/25 05:01:44;;;;;;;0.20;0.10;;;;;;;0.94;100.00;98572.31;5034923;28;20452;-53
2021/01/25 05:04:10;;;;;;;0.20;0.10;;;;;;;1.32;100.00;98572.47;5047725;28;20498;-52
2021/01/25 05:06:38;;;;;;;0.30;0.20;;;;;;;1.59;100.00;98573.69;5034498;28;20450;-53
2021/01/25 05:09:04;;;;;;;0.20;0.10;;;;;;;1.42;100.00;98570.56;5047687;28;20951;-53
2021/01/25 05:11:30;;;;;;;0.20;0.10;;;;;;;1.19;100.00;98574.47;5034136;28;20462;-51
2021/01/25 05:14:04;;;;;;;0.20;0.10;;;;;;;1.15;100.00;98574.56;5047657;28;20532;-52
2021/01/25 05:16:32;;;;;;;0.20;0.10;;;;;;;1.08;100.00;98572.94;5034216;28;20572;-52
2021/01/25 05:19:01;;;;;;;0.20;0.10;;;;;;;1.13;100.00;98585.06;5047546;28;20516;-53
2021/01/25 05:21:35;;;;;;;0.20;0.10;;;;;;;1.32;100.00;98582.94;5032941;28;20452;-53
2021/01/25 05:24:08;;;;;;;0.20;0.10;;;;;;;1.08;100.00;98573.78;5050429;28;20996;-52
2021/01/25 05:26:35;;;;;;;0.20;0.10;;;;;;;1.14;100.00;98583.31;5045892;28;20452;-53
2021/01/25 05:29:03;;;;;;;0.20;0.10;;;;;;;1.03;100.00;98587.88;5038123;28;20459;-53
2021/01/25 05:31:29;;;;;;;0.20;0.10;;;;;;;0.97;100.00;98586.22;5053130;28;20447;-52
2021/01/25 05:33:56;;;;;;;0.20;0.10;;;;;;;0.88;100.00;98583.75;5035027;28;20846;-52
2021/01/25 05:36:25;;;;;;;0.20;0.10;;;;;;;0.91;100.00;98586.31;5045927;28;20540;-53
2021/01/25 05:38:53;;;;;;;0.20;0.10;;;;;;;0.85;100.00;98589.91;5035051;28;20863;-51
2021/01/25 05:41:21;;;;;;;0.20;0.10;;;;;;;0.87;100.00;98590.75;5046447;28;20485;-53
2021/01/25 05:43:49;;;;;;;0.20;0.10;;;;;;;0.80;100.00;98590.88;5034189;28;20482;-53
2021/01/25 05:46:18;;;;;;;0.20;0.10;;;;;;;0.74;100.00;98584.00;5047291;28;20450;-52
2021/01/25 05:48:56;;;;;;;0.20;0.10;;;;;;;0.89;100.00;98596.81;5040327;28;20947;-52
2021/01/25 05:51:22;;;;;;;0.20;0.10;;;;;;;0.92;100.00;98590.66;5037962;28;20497;-52
2021/01/25 05:53:48;;;;;;;0.20;0.10;;;;;;;0.94;100.00;98588.00;5041797;28;20478;-53
2021/01/25 05:56:15;;;;;;;0.30;0.30;;;;;;;1.04;100.00;98589.59;5051655;28;20517;-52
2021/01/25 05:58:42;;;;;;;0.20;0.10;;;;;;;1.01;100.00;98594.88;5033726;28;20574;-53
2021/01/25 06:01:09;;;;;;;0.20;0.10;;;;;;;0.93;100.00;98601.97;5047098;28;20497;-52
2021/01/25 06:03:37;;;;;;;0.20;0.10;;;;;;;1.02;100.00;98597.47;5033663;28;20479;-51
2021/01/25 06:06:15;;;;;;;0.20;0.10;;;;;;;1.06;100.00;98595.66;5046955;28;20458;-53
2021/01/25 06:08:47;;;;;;;0.20;0.20;;;;;;;1.15;100.00;98605.97;5033337;28;20451;-52
2021/01/25 06:11:16;;;;;;;0.20;0.10;;;;;;;1.11;100.00;98604.31;5046364;28;20954;-52
2021/01/25 06:14:07;;;;;;;0.20;0.10;;;;;;;1.11;100.00;98602.53;5033242;28;20468;-51
2021/01/25 06:16:34;;;;;;;0.20;0.10;;;;;;;1.06;100.00;98603.50;5041551;28;20573;-53
2021/01/25 06:19:08;;;;;;;0.20;0.10;;;;;;;1.09;100.00;98608.66;5037855;28;20463;-52
2021/01/25 06:21:40;;;;;;;0.20;0.10;;;;;;;1.04;100.00;98613.13;5042811;28;20447;-53
2021/01/25 06:24:11;;;;;;;0.20;0.10;;;;;;;1.11;100.00;98617.38;5042813;28;20827;-53
2021/01/25 06:26:39;;;;;;;0.20;0.13;;;;;;;1.24;100.00;98626.72;5041326;28;20498;-53
2021/01/25 06:29:07;;;;;;;0.20;0.10;;;;;;;1.25;100.00;98623.22;5038224;28;20940;-53
2021/01/25 06:31:38;;;;;;;0.20;0.10;;;;;;;1.28;100.00;98628.41;5052762;28;20451;-52
2021/01/25 06:34:09;;;;;;;0.20;0.10;;;;;;;1.22;100.00;98633.72;5032556;28;20470;-53
2021/01/25 06:36:37;;;;;;;0.20;0.10;;;;;;;1.20;100.00;98635.50;5046044;28;20882;-53
2021/01/25 06:39:04;;;;;;;0.20;0.10;;;;;;;1.17;100.00;98639.03;5033174;28;20505;-53
2021/01/25 06:41:39;;;;;;;0.20;0.10;;;;;;;1.22;100.00;98640.72;5046323;28;20446;-52
2021/01/25 06:44:06;;;;;;;0.20;0.10;;;;;;;1.05;100.00;98641.88;5033039;28;20888;-52
2021/01/25 06:46:37;;;;;;;0.20;0.10;;;;;;;1.12;100.00;98651.34;5044964;28;20446;-52
2021/01/25 06:49:06;;;;;;;0.20;0.10;;;;;;;1.15;100.00;98650.44;5032724;28;20955;-52
2021/01/25 06:51:38;;;;;;;0.20;0.10;;;;;;;1.16;100.00;98655.66;5045875;28;20459;-53
2021/01/25 06:54:06;;;;;;;0.20;0.10;;;;;;;1.18;100.00;98659.09;5040024;28;20475;-53
2021/01/25 06:56:49;;;;;;;0.20;0.10;;;;;;;1.14;100.00;98661.78;5047856;28;20499;-52
2021/01/25 06:59:15;;;;;;;0.20;0.10;;;;;;;1.16;100.00;98673.09;5032212;28;20450;-51
2021/01/25 07:01:42;;;;;;;0.20;0.10;;;;;;;1.26;100.00;98671.19;5039279;28;20500;-53
2021/01/25 07:04:14;;;;;;;0.20;0.10;;;;;;;1.25;100.00;98674.69;5038998;28;20467;-50
2021/01/25 07:06:44;;;;;;;0.20;0.10;;;;;;;1.18;100.00;98676.53;5040353;28;20447;-52
2021/01/25 07:09:10;;;;;;;0.20;0.10;;;;;;;1.18;100.00;98682.63;5037774;28;20501;-53
2021/01/25 07:11:36;;;;;;;0.20;0.10;;;;;;;1.22;100.00;98677.34;5040641;28;20458;-52
2021/01/25 07:14:03;;;;;;;0.20;0.10;;;;;;;1.19;100.00;98686.97;5037236;28;20517;-53
2021/01/25 07:16:29;;;;;;;0.20;0.10;;;;;;;1.14;100.00;98693.19;5040580;28;20486;-53
2021/01/25 07:18:55;;;;;;;0.20;0.20;;;;;;;0.98;100.00;98696.94;5037395;28;20452;-52
2021/01/25 07:21:27;;;;;;;0.20;0.10;;;;;;;1.12;100.00;98698.44;5041494;28;20439;-52
2021/01/25 07:23:58;;;;;;;0.20;0.10;;;;;;;1.15;100.00;98698.41;5041566;28;20470;-53
2021/01/25 07:26:24;;;;;;;0.20;0.10;;;;;;;1.16;100.00;98705.34;5042433;28;20439;-53
2021/01/25 07:28:50;;;;;;;0.30;0.20;;;;;;;1.29;100.00;98707.78;5035573;28;20454;-53
2021/01/25 07:31:16;;;;;;;0.20;0.10;;;;;;;1.12;100.00;98706.31;5052330;28;20496;-52
2021/01/25 07:33:43;;;;;;;0.20;0.10;;;;;;;1.28;100.00;98704.28;5035086;28;20988;-52
2021/01/25 07:36:10;;;;;;;0.20;0.10;;;;;;;1.28;100.00;98706.03;5042143;28;20508;-53
2021/01/25 07:38:36;;;;;;;0.20;0.10;;;;;;;1.27;100.00;98713.03;5034738;28;20462;-52
2021/01/25 07:41:02;;;;;;;0.20;0.10;;;;;;;1.34;100.00;98716.41;5042512;28;20907;-53
2021/01/25 07:43:30;;;;;;;0.20;0.10;;;;;;;1.37;100.00;98725.09;5035880;28;20475;-46
2021/01/25 07:46:07;;;;;;;0.20;0.10;;;;;;;1.38;100.00;98721.56;5042622;28;20450;-47
2021/01/25 07:48:34;;;;;;;0.20;0.10;;;;;;;1.61;100.00;98722.91;5033300;28;20449;-47
2021/01/25 07:51:00;;;;;;;0.20;0.10;;;;;;;1.71;100.00;98727.09;5044309;28;20458;-46
2021/01/25 07:53:34;;;;;;;0.20;0.10;;;;;;;1.73;100.00;98728.78;5035194;28;20475;-46
2021/01/25 07:56:00;;;;;;;0.20;0.13;;;;;;;1.55;100.00;98731.75;5051286;28;20489;-47
2021/01/25 07:58:26;;;;;;;0.60;0.60;;;;;;;1.73;100.00;98743.63;5035553;28;20455;-46
2021/01/25 08:00:53;;;;;;;0.20;0.10;;;;;;;1.57;100.00;98742.19;5049122;28;20504;-47
2021/01/25 08:03:23;;;;;;;0.20;0.10;;;;;;;1.68;100.00;98745.50;5036041;28;20882;-47
2021/01/25 08:05:55;;;;;;;0.20;0.10;;;;;;;1.90;100.00;98743.31;5049376;28;20525;-46
2021/01/25 08:08:22;;;;;;;0.20;0.10;;;;;;;1.83;100.00;98755.69;5036089;28;20451;-47
2021/01/25 08:10:49;;;;;;;0.20;0.10;;;;;;;1.94;100.00;98758.09;5049037;28;20450;-47
2021/01/25 08:13:18;;;;;;;0.20;0.10;;;;;;;1.97;100.00;98758.91;5035654;28;20501;-47
2021/01/25 08:16:02;;;;;;;0.20;0.20;;;;;;;1.97;100.00;98761.53;5049004;28;20589;-47
2021/01/25 08:18:44;;;;;;;0.20;0.10;;;;;;;1.96;100.00;98762.41;5035568;28;20450;-46
2021/01/25 08:21:31;;;;;;;0.20;0.10;;;;;;;1.70;100.00;98767.28;5048696;28;20489;-47
2021/01/25 08:24:01;;;;;;;0.20;0.10;;;;;;;1.72;100.00;98773.34;5041489;28;21416;-47
2021/01/25 08:26:29;;;;;;;0.20;0.10;;;;;;;1.78;100.00;98776.72;5045443;28;20453;-47
2021/01/25 08:29:04;;;;;;;0.20;0.10;;;;;;;2.05;100.00;98774.47;5038957;28;20455;-47
2021/01/25 08:31:33;;;;;;;0.20;0.10;;;;;;;1.72;100.00;98774.19;5055550;28;20454;-46
2021/01/25 08:34:04;;;;;;;0.20;0.10;;;;;;;1.80;100.00;98786.31;5035872;28;20467;-46
2021/01/25 08:36:36;;;;;;;0.20;0.10;;;;;;;1.94;100.00;98782.56;5048497;28;21049;-49
2021/01/25 08:39:16;;;;;;;0.20;0.10;;;;;;;2.25;100.00;98790.69;5042493;28;20500;-48
2021/01/25 08:42:03;;;;;;;0.20;0.10;;;;;;;1.87;100.00;98799.25;5039632;28;20439;-46
2021/01/25 08:44:29;;;;;;;3.50;3.30;;;;;;;2.08;100.00;98798.03;5046361;28;20979;-47
2021/01/25 08:47:06;;;;;;;0.20;0.10;;;;;;;2.15;100.00;98806.63;5036717;28;20498;-47
2021/01/25 08:49:39;;;;;;;0.20;0.10;;;;;;;2.32;100.00;98808.00;5048434;28;20447;-47
2021/01/25 08:52:08;;;;;;;0.20;0.10;;;;;;;2.20;100.00;98795.16;5047606;28;20447;-47
2021/01/25 08:54:39;;;;;;;0.20;0.10;;;;;;;2.19;100.00;98808.28;5046078;28;21053;-46
2021/01/25 08:57:20;;;;;;;0.20;0.10;;;;;;;2.22;100.00;98811.72;5046319;28;20557;-47
2021/01/25 08:59:47;;;;;;;0.20;0.10;;;;;;;2.27;100.00;98804.63;5038623;28;20443;-48
2021/01/25 09:02:19;;;;;;;0.20;0.10;;;;;;;2.39;100.00;98814.00;5044159;28;20456;-48
2021/01/25 09:04:48;;;;;;;0.20;0.10;;;;;;;2.22;100.00;98818.72;5039367;28;20505;-48
2021/01/25 09:07:17;;;;;;;0.20;0.10;;;;;;;2.28;100.00;98819.47;5043069;28;20448;-48
2021/01/25 09:09:43;;;;;;;0.30;0.30;;;;;;;2.34;100.00;98827.22;5038711;28;20501;-45
2021/01/25 09:12:10;;;;;;;0.20;0.10;;;;;;;2.33;100.00;98825.50;5042675;28;20448;-46
2021/01/25 09:14:37;;;;;;;0.20;0.10;;;;;;;2.62;100.00;98835.41;5039742;28;20471;-46
2021/01/25 09:17:03;;;;;;;0.20;0.10;;;;;;;2.52;100.00;98844.34;5042428;28;20850;-46
2021/01/25 09:19:30;;;;;;;0.20;0.10;;;;;;;2.69;100.00;98844.00;5040442;28;20451;-46
2021/01/25 09:21:56;;;;;;;0.87;0.87;;;;;;;2.35;100.00;98843.81;5041652;28;20455;-46
2021/01/25 09:24:22;;;;;;;0.30;0.20;;;;;;;2.15;100.00;98849.41;5043648;28;20963;-46
2021/01/25 09:26:48;;;;;;;0.20;0.10;;;;;;;2.19;100.00;98858.06;5042017;28;20448;-45
2021/01/25 09:29:14;;;;;;;0.20;0.10;;;;;;;2.26;100.00;98852.72;5040066;28;20948;-46
2021/01/25 09:31:40;;;;;;;0.20;0.10;;;;;;;2.35;100.00;98854.31;5054065;28;20572;-50
2021/01/25 09:34:07;;;;;;;0.20;0.10;;;;;;;2.29;100.00;98863.13;5040698;28;20893;-46
2021/01/25 09:36:33;;;;;;;0.20;0.10;;;;;;;2.76;100.00;98871.00;5052759;28;20487;-46
2021/01/25 09:39:08;;;;;;;0.20;0.20;;;;;;;2.20;100.00;98878.19;5041525;28;20447;-47
2021/01/25 09:41:35;;;;;;;0.20;0.10;;;;;;;2.04;100.00;98881.03;5039526;28;20502;-49
2021/01/25 09:44:03;;;;;;;0.97;0.97;;;;;;;2.02;100.00;98884.59;5042026;28;20474;-47
2021/01/25 09:46:29;;;;;;;0.20;0.10;;;;;;;1.99;100.00;98889.88;5037464;28;20860;-47
2021/01/25 09:48:55;;;;;;;0.20;0.10;;;;;;;1.99;100.00;98895.97;5042326;28;20950;-47
2021/01/25 09:51:21;;;;;;;0.20;0.10;;;;;;;2.03;100.00;98900.28;5038934;28;20448;-47
2021/01/25 09:53:48;;;;;;;0.20;0.10;;;;;;;1.97;100.00;98896.91;5041723;28;20833;-47
2021/01/25 09:56:14;;;;;;;0.20;0.10;;;;;;;2.04;100.00;98902.00;5052166;28;20540;-48
2021/01/25 09:58:40;;;;;;;0.40;0.40;;;;;;;2.22;100.00;98910.47;5033778;28;20471;-47
2021/01/25 10:01:06;;;;;;;0.20;0.10;;;;;;;2.54;100.00;98913.38;5046806;28;20508;-48
2021/01/25 10:03:32;;;;;;;0.20;0.10;;;;;;;2.27;100.00;98921.72;5033514;28;20929;-47
2021/01/25 10:05:59;;;;;;;0.20;0.10;;;;;;;2.24;100.00;98921.78;5046716;28;20449;-47
2021/01/25 10:08:25;;;;;;;0.20;0.20;;;;;;;2.28;100.00;98923.44;5033567;28;21002;-48
2021/01/25 10:10:51;;;;;;;0.20;0.10;;;;;;;2.53;100.00;98923.88;5047080;28;20528;-47
2021/01/25 10:13:17;;;;;;;0.20;0.10;;;;;;;2.37;100.00;98931.16;5033229;28;20472;-48
2021/01/25 10:15:44;;;;;;;0.20;0.10;;;;;;;2.27;100.00;98932.22;5046493;28;20487;-47
2021/01/25 10:18:10;;;;;;;0.20;0.10;;;;;;;2.38;100.00;98936.38;5034345;28;20447;-48
2021/01/25 10:20:36;;;;;;;0.20;0.10;;;;;;;2.59;100.00;98940.34;5048329;28;20485;-48
2021/01/25 10:23:04;;;;;;;0.30;0.10;;;;;;;2.47;100.00;98951.09;5033619;28;20475;-48
2021/01/25 10:25:31;;;;;;;0.20;0.10;;;;;;;2.49;100.00;98943.19;5050547;28;20540;-47
2021/01/25 10:27:57;;;;;;;0.20;0.10;;;;;;;2.47;100.00;98952.81;5032419;28;20459;-47
2021/01/25 10:30:24;;;;;;;0.20;0.10;;;;;;;2.94;100.00;98960.69;5048511;28;20584;-48
2021/01/25 10:32:50;;;;;;;0.20;0.20;;;;;;;2.74;100.00;98959.34;5043525;28;20510;-47
2021/01/25 10:35:17;;;;;;;0.20;0.10;;;;;;;3.22;100.00;98961.00;5036086;28;20482;-48
2021/01/25 10:37:43;;;;;;;3.10;2.83;;;;;;;2.71;100.00;98962.03;5043167;28;20525;-47
2021/01/25 10:40:11;;;;;;;0.20;0.10;;;;;;;2.59;100.00;98966.59;5035567;28;20455;-47
2021/01/25 10:42:37;;;;;;;0.20;0.10;;;;;;;2.59;100.00;98966.59;5043345;28;20475;-50
2021/01/25 10:45:04;;;;;;;0.20;0.10;;;;;;;2.96;100.00;98963.28;5035814;28;20790;-47
2021/01/25 10:47:31;;;;;;;0.20;0.20;;;;;;;3.00;100.00;98962.31;5043169;28;20452;-47
2021/01/25 10:49:57;;;;;;;0.20;0.10;;;;;;;2.58;100.00;98970.09;5035951;28;20447;-47
2021/01/25 10:52:23;;;;;;;0.30;0.20;;;;;;;2.58;100.00;98975.34;5042878;28;20451;-48
2021/01/25 10:54:49;;;;;;;0.20;0.20;;;;;;;3.02;100.00;98975.44;5046121;28;20454;-47
2021/01/25 10:57:15;;;;;;;0.20;0.10;;;;;;;3.12;100.00;98980.47;5042655;28;20499;-47
2021/01/25 10:59:44;;;;;;;0.20;0.10;;;;;;;3.01;100.00;98977.19;5035805;28;20454;-47
2021/01/25 11:02:10;;;;;;;0.20;0.10;;;;;;;3.21;100.00;98985.53;5042736;28;20459;-47
2021/01/25 11:04:36;;;;;;;0.20;0.10;;;;;;;3.08;100.00;98991.94;5034955;28;20528;-48
2021/01/25 11:07:03;;;;;;;0.20;0.10;;;;;;;3.21;100.00;98987.31;5042348;28;20459;-47
2021/01/25 11:09:30;;;;;;;0.20;0.10;;;;;;;3.47;100.00;98999.91;5035762;28;20860;-47
2021/01/25 11:11:58;;;;;;;0.20;0.10;;;;;;;2.96;100.00;98989.53;5042424;28;20456;-47
2021/01/25 11:14:24;;;;;;;0.30;0.20;;;;;;;3.24;100.00;98995.09;5035561;28;20467;-47
2021/01/25 11:16:50;;;;;;;0.40;0.40;;;;;;;3.45;100.00;98999.06;5042061;28;21054;-48
2021/01/25 11:19:18;;;;;;;0.30;0.10;;;;;;;3.23;100.00;98999.50;5036395;28;20534;-47
2021/01/25 11:21:44;;;;;;;0.20;0.10;;;;;;;3.09;100.00;99003.28;5041640;28;20505;-47
2021/01/25 11:24:11;;;;;;;0.20;0.10;;;;;;;2.97;100.00;99002.63;5040340;28;20466;-48
2021/01/25 11:26:39;;;;;;;0.20;0.10;;;;;;;3.41;100.00;99002.63;5042200;28;20447;-48
2021/01/25 11:29:07;;;;;;;0.20;0.10;;;;;;;3.15;100.00;99003.16;5035982;28;20481;-47
2021/01/25 11:31:34;;;;;;;0.20;0.10;;;;;;;3.05;100.00;99006.88;5053582;28;20525;-48
2021/01/25 11:34:00;;;;;;;0.20;0.20;;;;;;;3.10;100.00;99005.88;5039531;28;20467;-48
2021/01/25 11:36:27;;;;;;;0.20;0.10;;;;;;;3.77;100.00;99016.78;5050981;28;20486;-48
2021/01/25 11:38:53;;;;;;;0.20;0.10;;;;;;;3.82;100.00;99013.13;5039419;28;20451;-47